Time;durP1;ratioP1;P1;durP2;ratioP2;P2;SDS_P1;SDS_P2;PMS_P1;PMS_P2;Temp;Humidity;BMP_temperature;BMP_pressure;BME280_temperature;BME280_humidity;BME280_pressure;Samples;Min_cycle;Max_cycle;Signal;HPM_P1;HPM_P2
2021/07/19 00:01:49;;;;;;;;;8.50;7.25;;;;;26.24;43.15;101567.78;5101945;27;46189;-59
2021/07/19 00:04:14;;;;;;;;;8.50;6.50;;;;;26.21;43.58;101560.78;5101977;27;45461;-59
2021/07/19 00:06:40;;;;;;;;;9.00;9.00;;;;;26.18;43.75;101558.28;5102042;27;45212;-59
2021/07/19 00:09:06;;;;;;;;;8.75;7.75;;;;;26.15;43.22;101569.28;5101829;27;45429;-59
2021/07/19 00:11:31;;;;;;;;;7.00;5.50;;;;;26.14;43.35;101561.25;5083578;27;45497;-59
2021/07/19 00:13:57;;;;;;;;;9.75;9.00;;;;;26.10;43.71;101558.78;5101445;27;45486;-59
2021/07/19 00:16:23;;;;;;;;;13.50;8.50;;;;;26.08;43.66;101563.41;5080071;28;45312;-59
2021/07/19 00:18:49;;;;;;;;;9.50;8.50;;;;;26.04;43.33;101563.72;5096181;27;45306;-59
2021/07/19 00:21:14;;;;;;;;;7.25;7.25;;;;;26.02;43.46;101569.16;5101443;27;45389;-59
2021/07/19 00:23:39;;;;;;;;;7.25;7.25;;;;;26.01;43.61;101566.59;5081222;27;48098;-59
2021/07/19 00:26:05;;;;;;;;;6.50;6.25;;;;;25.97;43.58;101568.63;5101860;27;45315;-59
2021/07/19 00:28:31;;;;;;;;;9.00;9.00;;;;;25.94;43.62;101561.59;5101170;27;45265;-58
2021/07/19 00:30:57;;;;;;;;;9.00;9.00;;;;;25.88;43.44;101556.63;5101597;27;45453;-59
2021/07/19 00:33:22;;;;;;;;;8.00;8.00;;;;;25.88;43.79;101570.09;5101362;27;47147;-59
2021/07/19 00:35:48;;;;;;;;;9.00;8.00;;;;;25.87;43.64;101572.88;5099538;27;45238;-59
2021/07/19 00:38:14;;;;;;;;;7.50;7.50;;;;;25.84;44.05;101568.56;5096257;27;45218;-60
2021/07/19 00:40:39;;;;;;;;;6.75;6.25;;;;;25.80;43.86;101570.59;5101642;27;45244;-59
2021/07/19 00:43:06;;;;;;;;;7.25;6.00;;;;;25.80;43.87;101564.38;5082484;27;46240;-59
2021/07/19 00:45:32;;;;;;;;;9.75;7.25;;;;;25.76;44.08;101565.50;5101795;27;45212;-59
2021/07/19 00:48:00;;;;;;;;;7.75;6.00;;;;;25.74;43.95;101562.94;5101190;27;45334;-59
2021/07/19 00:50:28;;;;;;;;;8.75;8.00;;;;;25.69;43.88;101561.50;5101279;27;45321;-59
2021/07/19 00:52:59;;;;;;;;;8.25;7.25;;;;;25.69;44.30;101558.81;5081924;27;46319;-59
2021/07/19 00:55:33;;;;;;;;;8.50;8.25;;;;;25.66;44.40;101561.69;5101199;27;45354;-59
2021/07/19 00:58:01;;;;;;;;;8.00;7.00;;;;;25.62;44.13;101569.97;5100921;27;45398;-59
2021/07/19 01:00:28;;;;;;;;;9.00;9.00;;;;;25.60;44.13;101557.59;5079433;28;45508;-58
2021/07/19 01:02:55;;;;;;;;;9.00;8.25;;;;;25.58;44.21;101567.59;5099349;27;45323;-59
2021/07/19 01:05:20;;;;;;;;;9.25;9.00;;;;;25.56;44.50;101577.56;5101093;27;45216;-58
2021/07/19 01:07:47;;;;;;;;;8.75;8.75;;;;;25.53;44.18;101567.03;5101334;27;45233;-60
2021/07/19 01:10:19;;;;;;;;;11.00;9.50;;;;;25.46;44.50;101556.66;5100919;27;45461;-59
2021/07/19 01:12:49;;;;;;;;;10.00;8.75;;;;;25.47;44.62;101557.50;5082015;27;46764;-59
2021/07/19 01:15:15;;;;;;;;;6.75;6.75;;;;;25.42;44.32;101555.13;5100847;27;45383;-59
2021/07/19 01:17:41;;;;;;;;;8.75;6.75;;;;;25.39;44.58;101555.31;5101186;27;45326;-59
2021/07/19 01:20:08;;;;;;;;;8.75;7.00;;;;;25.35;44.48;101552.91;5099938;27;45472;-66
2021/07/19 01:22:48;;;;;;;;;8.00;7.00;;;;;25.36;44.88;101554.59;5100626;27;45142;-67
2021/07/19 01:25:32;;;;;;;;;8.00;7.00;;;;;25.34;44.73;101553.88;5100639;27;45397;-60
2021/07/19 01:28:34;;;;;;;;;10.50;9.00;;;;;25.30;44.78;101562.13;5100639;27;45316;-61
2021/07/19 01:31:04;;;;;;;;;10.25;10.00;;;;;25.26;44.76;101560.59;5100801;27;45315;-63
2021/07/19 01:33:31;;;;;;;;;7.50;6.75;;;;;25.23;45.08;101554.53;5100523;27;45245;-62
2021/07/19 01:35:59;;;;;;;;;8.25;8.00;;;;;25.20;45.14;101552.06;5097361;27;45371;-59
2021/07/19 01:38:27;;;;;;;;;7.50;7.50;;;;;25.17;44.89;101555.81;5095512;27;45457;-59
2021/07/19 01:40:54;;;;;;;;;10.00;9.75;;;;;25.14;45.42;101555.97;5100511;27;45472;-59
2021/07/19 01:43:20;;;;;;;;;10.25;9.25;;;;;25.12;45.49;101564.16;5100008;27;45295;-59
2021/07/19 01:45:48;;;;;;;;;10.00;8.00;;;;;25.09;45.25;101556.28;5100517;27;45405;-58
2021/07/19 01:48:14;;;;;;;;;9.50;7.75;;;;;25.03;45.41;101553.09;5082202;27;45476;-59
2021/07/19 01:50:39;;;;;;;;;10.00;9.50;;;;;25.03;45.33;101562.06;5100306;27;45189;-58
2021/07/19 01:53:05;;;;;;;;;8.25;6.25;;;;;24.97;45.18;101549.84;5081314;27;46250;-58
2021/07/19 01:55:32;;;;;;;;;7.25;6.75;;;;;24.95;45.34;101549.06;5100601;27;45239;-59
2021/07/19 01:57:58;;;;;;;;;7.25;7.25;;;;;24.93;45.26;101547.44;5100150;27;45445;-59
2021/07/19 02:00:25;;;;;;;;;8.50;7.75;;;;;24.91;45.72;101544.00;5100275;27;45412;-58
2021/07/19 02:02:53;;;;;;;;;9.00;9.00;;;;;24.88;45.56;101550.44;5099963;27;45335;-59
2021/07/19 02:05:21;;;;;;;;;9.25;8.75;;;;;24.86;45.51;101549.66;5100239;27;45302;-58
2021/07/19 02:07:49;;;;;;;;;8.00;8.00;;;;;24.83;45.87;101547.16;5100037;27;45286;-58
2021/07/19 02:10:16;;;;;;;;;8.00;7.50;;;;;24.80;45.66;101552.72;5100103;27;45468;-58
2021/07/19 02:12:44;;;;;;;;;8.00;8.00;;;;;24.78;45.51;101547.44;5099430;27;46326;-59
2021/07/19 02:15:17;;;;;;;;;9.00;9.00;;;;;24.76;45.48;101548.50;5100004;27;45161;-59
2021/07/19 02:18:03;;;;;;;;;10.50;10.50;;;;;24.73;45.84;101551.34;5100082;27;45291;-58
2021/07/19 02:20:29;;;;;;;;;9.25;7.25;;;;;24.69;45.99;101549.81;5099327;27;45371;-58
2021/07/19 02:22:58;;;;;;;;;9.00;9.00;;;;;24.66;46.00;101556.25;5099811;27;46194;-59
2021/07/19 02:25:24;;;;;;;;;10.00;8.00;;;;;24.64;45.74;101555.44;5099876;27;45299;-59
2021/07/19 02:27:52;;;;;;;;;10.50;10.00;;;;;24.61;45.99;101551.13;5099785;27;45454;-58
2021/07/19 02:30:19;;;;;;;;;10.00;10.00;;;;;24.59;46.20;101552.16;5099651;27;45675;-58
2021/07/19 02:32:49;;;;;;;;;9.00;9.00;;;;;24.58;46.13;101550.44;5079869;28;46140;-59
2021/07/19 02:35:16;;;;;;;;;7.50;7.50;;;;;24.55;45.97;101553.31;5100025;27;45317;-59
2021/07/19 02:37:44;;;;;;;;;12.50;9.25;;;;;24.54;46.21;101556.97;5085069;27;45394;-58
2021/07/19 02:40:12;;;;;;;;;9.00;8.50;;;;;24.50;46.30;101550.91;5103086;27;45542;-58
2021/07/19 02:42:43;;;;;;;;;11.00;9.75;;;;;24.46;46.20;101552.91;5084451;27;47364;-59
2021/07/19 02:45:14;;;;;;;;;11.25;9.75;;;;;24.46;46.29;101563.66;5103268;27;45250;-58
2021/07/19 02:47:42;;;;;;;;;10.75;8.75;;;;;24.44;46.49;101560.22;5103502;27;45385;-58
2021/07/19 02:50:09;;;;;;;;;8.50;8.25;;;;;24.41;46.21;101552.31;5103015;27;45450;-58
2021/07/19 02:52:37;;;;;;;;;9.00;9.00;;;;;24.37;46.39;101556.16;5103085;27;46353;-59
2021/07/19 02:55:04;;;;;;;;;7.50;7.50;;;;;24.38;46.52;101552.50;5102954;27;45304;-58
2021/07/19 02:57:30;;;;;;;;;9.75;9.00;;;;;24.36;46.51;101554.41;5102871;27;45418;-59
2021/07/19 02:59:57;;;;;;;;;12.00;8.75;;;;;24.34;46.82;101554.50;5081103;28;45507;-59
2021/07/19 03:02:25;;;;;;;;;6.00;5.00;;;;;24.31;46.69;101549.34;5096344;27;46273;-58
2021/07/19 03:04:55;;;;;;;;;9.00;9.00;;;;;24.30;46.56;101552.09;5103093;27;45353;-59
2021/07/19 03:07:22;;;;;;;;;9.75;9.00;;;;;24.26;46.67;101547.88;5103008;27;45452;-58
2021/07/19 03:09:55;;;;;;;;;7.00;7.00;;;;;24.24;46.89;101541.72;5084559;27;45268;-58
2021/07/19 03:12:23;;;;;;;;;9.25;9.25;;;;;24.17;46.82;101538.53;5102391;27;46284;-59
2021/07/19 03:14:49;;;;;;;;;9.00;9.00;;;;;24.18;46.89;101545.66;5102756;27;45235;-58
2021/07/19 03:17:18;;;;;;;;;12.25;9.75;;;;;24.16;46.88;101553.81;5102911;27;45232;-58
2021/07/19 03:19:45;;;;;;;;;8.75;8.75;;;;;24.15;47.16;101545.81;5080722;28;45410;-58
2021/07/19 03:22:13;;;;;;;;;16.50;16.50;;;;;24.12;46.89;101544.16;5098958;27;46427;-59
2021/07/19 03:24:39;;;;;;;;;10.25;9.50;;;;;24.11;47.08;101538.91;5102713;27;45482;-59
2021/07/19 03:27:05;;;;;;;;;9.00;9.00;;;;;24.08;47.28;101541.78;5102285;27;45232;-59
2021/07/19 03:29:33;;;;;;;;;13.75;11.25;;;;;24.06;47.38;101543.69;5084067;27;45259;-58
2021/07/19 03:31:58;;;;;;;;;11.25;8.25;;;;;24.04;47.16;101545.56;5102346;27;45451;-59
2021/07/19 03:34:25;;;;;;;;;11.75;10.50;;;;;24.01;47.18;101539.44;5102624;27;45371;-59
2021/07/19 03:36:55;;;;;;;;;12.50;10.50;;;;;24.00;47.30;101536.88;5095565;27;45512;-59
2021/07/19 03:39:21;;;;;;;;;9.75;9.75;;;;;23.95;46.97;101529.06;5084104;27;45336;-59
2021/07/19 03:41:51;;;;;;;;;10.25;10.25;;;;;23.94;47.56;101535.38;5102062;27;45411;-59
2021/07/19 03:44:17;;;;;;;;;10.25;9.25;;;;;23.83;47.71;101521.69;5083565;27;45361;-59
2021/07/19 03:46:43;;;;;;;;;16.00;11.00;;;;;23.87;47.44;101528.59;5102354;27;45315;-59
2021/07/19 03:49:12;;;;;;;;;9.75;9.75;;;;;23.88;47.58;101530.34;5084029;27;45520;-59
2021/07/19 03:51:38;;;;;;;;;12.00;10.00;;;;;23.86;47.59;101525.06;5102064;27;46369;-59
2021/07/19 03:54:04;;;;;;;;;11.25;11.25;;;;;23.84;47.32;101528.81;5102194;27;45304;-59
2021/07/19 03:56:30;;;;;;;;;11.00;10.50;;;;;23.83;47.49;101535.13;5102232;27;45413;-59
2021/07/19 03:58:57;;;;;;;;;12.50;10.50;;;;;23.81;47.81;101527.16;5101823;27;45252;-59
2021/07/19 04:01:24;;;;;;;;;15.00;11.00;;;;;23.80;47.67;101528.09;5101669;27;45458;-58
2021/07/19 04:03:54;;;;;;;;;11.50;9.50;;;;;23.79;47.77;101530.88;5100670;27;45289;-59
2021/07/19 04:06:21;;;;;;;;;11.50;10.00;;;;;23.78;47.74;101537.19;5102035;27;45371;-59
2021/07/19 04:08:48;;;;;;;;;10.25;8.75;;;;;23.74;47.98;101531.13;5083512;27;45889;-60
2021/07/19 04:11:16;;;;;;;;;11.50;11.00;;;;;23.70;47.78;101533.13;5101897;27;46303;-59
2021/07/19 04:13:43;;;;;;;;;8.50;7.50;;;;;23.72;47.81;101538.41;5101382;27;45339;-59
2021/07/19 04:16:09;;;;;;;;;13.75;10.25;;;;;23.69;47.50;101536.75;5102149;27;45359;-59
2021/07/19 04:18:35;;;;;;;;;13.25;11.25;;;;;23.69;47.99;101538.59;5101617;27;45525;-59
2021/07/19 04:21:00;;;;;;;;;9.00;8.25;;;;;23.67;47.95;101536.00;5101524;27;45465;-59
2021/07/19 04:23:26;;;;;;;;;13.25;11.50;;;;;23.63;47.98;101533.56;5101577;27;45371;-58
2021/07/19 04:25:52;;;;;;;;;11.00;11.00;;;;;23.63;47.85;101531.75;5102183;27;45307;-59
2021/07/19 04:28:22;;;;;;;;;8.50;8.50;;;;;23.62;48.03;101535.41;5101121;27;45295;-59
2021/07/19 04:30:49;;;;;;;;;16.25;10.50;;;;;23.61;47.98;101538.16;5100726;27;46153;-59
2021/07/19 04:33:17;;;;;;;;;10.25;10.25;;;;;23.60;48.07;101528.41;5101537;27;45341;-59
2021/07/19 04:35:45;;;;;;;;;10.00;8.25;;;;;23.58;48.16;101531.16;5100707;27;45409;-59
2021/07/19 04:38:14;;;;;;;;;10.00;10.00;;;;;23.56;48.27;101533.06;5095952;27;45458;-59
2021/07/19 04:40:40;;;;;;;;;10.50;8.00;;;;;23.56;48.09;101526.81;5101323;27;45578;-58
2021/07/19 04:43:06;;;;;;;;;12.50;10.25;;;;;23.53;48.24;101528.75;5100954;27;45383;-59
2021/07/19 04:45:31;;;;;;;;;11.25;10.25;;;;;23.52;48.44;101526.13;5101607;27;45916;-58
2021/07/19 04:47:56;;;;;;;;;15.50;11.50;;;;;23.49;48.58;101529.00;5101477;27;45309;-59
2021/07/19 04:50:22;;;;;;;;;9.50;9.00;;;;;23.47;48.34;101528.19;5082885;27;45848;-58
2021/07/19 04:52:47;;;;;;;;;13.25;9.50;;;;;23.46;48.43;101526.47;5101293;27;45370;-59
2021/07/19 04:55:18;;;;;;;;;21.25;16.75;;;;;23.42;48.30;101524.91;5100414;27;45200;-59
2021/07/19 04:57:45;;;;;;;;;10.75;10.50;;;;;23.42;48.12;101528.47;5100798;27;45372;-59
2021/07/19 05:00:11;;;;;;;;;13.50;11.50;;;;;23.38;48.54;101518.84;5101074;27;45349;-59
2021/07/19 05:02:40;;;;;;;;;12.50;11.25;;;;;23.40;48.53;101525.00;5081132;27;46669;-59
2021/07/19 05:05:10;;;;;;;;;13.00;12.00;;;;;23.37;48.41;101527.88;5101157;27;45200;-58
2021/07/19 05:07:38;;;;;;;;;11.25;11.25;;;;;23.39;48.90;101533.16;5082258;27;45405;-58
2021/07/19 05:10:07;;;;;;;;;12.00;11.50;;;;;23.37;48.45;101544.81;5079100;28;47161;-59
2021/07/19 05:12:33;;;;;;;;;14.50;13.50;;;;;23.36;48.83;101543.09;5097640;27;45331;-58
2021/07/19 05:15:00;;;;;;;;;13.00;12.50;;;;;23.35;48.67;101544.03;5101090;27;45465;-58
2021/07/19 05:17:27;;;;;;;;;11.25;11.25;;;;;23.32;48.64;101544.22;5100833;27;45467;-58
2021/07/19 05:19:54;;;;;;;;;12.75;12.75;;;;;23.34;49.00;101547.66;5082130;27;47172;-58
2021/07/19 05:22:20;;;;;;;;;11.50;10.50;;;;;23.34;48.81;101549.47;5100607;27;45339;-58
2021/07/19 05:24:46;;;;;;;;;10.25;9.75;;;;;23.29;48.84;101541.69;5101055;27;45307;-58
2021/07/19 05:27:13;;;;;;;;;12.50;11.25;;;;;23.33;48.88;101543.28;5100225;27;45185;-59
2021/07/19 05:29:39;;;;;;;;;9.75;9.25;;;;;23.33;48.93;101548.63;5100669;27;46226;-59
2021/07/19 05:32:06;;;;;;;;;12.50;12.00;;;;;23.33;49.06;101548.63;5100536;27;45358;-58
2021/07/19 05:34:32;;;;;;;;;11.25;10.75;;;;;23.32;48.85;101543.31;5100827;27;45363;-58
2021/07/19 05:36:58;;;;;;;;;12.50;11.25;;;;;23.35;49.07;101551.22;5092856;27;45619;-58
2021/07/19 05:39:23;;;;;;;;;12.25;11.50;;;;;23.34;48.96;101544.97;5100658;27;45319;-58
2021/07/19 05:41:49;;;;;;;;;9.00;9.00;;;;;23.35;49.16;101545.84;5100108;27;45231;-57
2021/07/19 05:44:14;;;;;;;;;15.00;13.50;;;;;23.35;49.06;101549.38;5100696;27;45181;-57
2021/07/19 05:46:40;;;;;;;;;16.75;14.75;;;;;23.36;49.14;101552.97;5100471;27;45567;-58
2021/07/19 05:49:05;;;;;;;;;12.75;10.00;;;;;23.35;49.15;101552.06;5100576;27;46036;-61
2021/07/19 05:51:31;;;;;;;;;10.50;10.50;;;;;23.37;49.14;101557.38;5100444;27;45153;-57
2021/07/19 05:53:56;;;;;;;;;12.50;11.25;;;;;23.37;49.34;101552.88;5100727;27;45223;-58
2021/07/19 05:56:22;;;;;;;;;11.75;11.75;;;;;23.37;49.17;101560.06;5100324;27;45544;-58
2021/07/19 05:58:47;;;;;;;;;12.75;10.50;;;;;23.34;49.33;101558.38;5100045;27;46900;-57
2021/07/19 06:01:13;;;;;;;;;12.50;12.50;;;;;23.36;49.28;101556.50;5100329;27;45380;-57
2021/07/19 06:03:38;;;;;;;;;10.25;10.25;;;;;23.36;49.42;101553.81;5100509;27;45363;-58
2021/07/19 06:06:05;;;;;;;;;13.75;10.00;;;;;23.39;49.36;101554.59;5101104;27;45396;-57
2021/07/19 06:08:31;;;;;;;;;14.25;13.00;;;;;23.39;49.38;101552.78;5103835;27;46503;-57
2021/07/19 06:10:56;;;;;;;;;13.75;12.00;;;;;23.40;49.70;101550.97;5103696;27;45422;-57
2021/07/19 06:13:22;;;;;;;;;13.25;13.25;;;;;23.42;49.81;101555.31;5103683;27;45392;-57
2021/07/19 06:15:48;;;;;;;;;13.75;13.00;;;;;23.43;49.50;101554.31;5103835;27;45477;-57
2021/07/19 06:18:13;;;;;;;;;13.00;12.00;;;;;23.44;49.44;101545.34;5103677;27;45320;-57
2021/07/19 06:20:39;;;;;;;;;14.25;13.25;;;;;23.47;49.54;101555.03;5102166;27;46091;-57
2021/07/19 06:23:04;;;;;;;;;15.25;13.50;;;;;23.46;49.84;101545.25;5103795;27;45724;-57
2021/07/19 06:25:31;;;;;;;;;13.00;11.50;;;;;23.48;49.74;101538.88;5103723;27;45301;-56
2021/07/19 06:27:57;;;;;;;;;12.75;11.00;;;;;23.50;49.63;101542.31;5103314;27;45279;-56
2021/07/19 06:30:23;;;;;;;;;12.00;12.00;;;;;23.51;49.90;101545.88;5081552;28;45374;-56
2021/07/19 06:32:48;;;;;;;;;14.00;13.50;;;;;23.53;49.84;101550.19;5089283;27;45256;-56
2021/07/19 06:35:14;;;;;;;;;13.00;12.25;;;;;23.56;49.71;101551.84;5100609;27;45349;-57
2021/07/19 06:37:40;;;;;;;;;12.00;12.00;;;;;23.57;50.00;101548.22;5096203;27;46189;-56
2021/07/19 06:40:06;;;;;;;;;12.00;10.00;;;;;23.60;49.73;101552.53;5103247;27;45314;-57
2021/07/19 06:42:32;;;;;;;;;12.00;10.25;;;;;23.62;49.78;101554.19;5103146;27;45453;-56
2021/07/19 06:44:58;;;;;;;;;12.00;10.25;;;;;23.64;49.88;101559.44;5103302;27;45411;-56
2021/07/19 06:47:27;;;;;;;;;13.50;10.50;;;;;23.64;49.85;101556.78;5103288;27;45251;-56
2021/07/19 06:49:57;;;;;;;;;14.25;11.50;;;;;23.69;49.69;101560.06;5081410;28;45408;-56
2021/07/19 06:52:22;;;;;;;;;14.25;10.25;;;;;23.70;50.03;101557.28;5072612;28;45306;-56
2021/07/19 06:54:48;;;;;;;;;11.25;9.75;;;;;23.72;50.09;101562.56;5100831;27;45298;-57
2021/07/19 06:57:13;;;;;;;;;11.25;11.25;;;;;23.74;49.87;101562.50;5102819;27;46356;-57
2021/07/19 06:59:38;;;;;;;;;12.50;12.50;;;;;23.77;49.82;101557.81;5103162;27;45249;-57
2021/07/19 07:02:04;;;;;;;;;14.00;12.00;;;;;23.77;50.08;101551.56;5103137;27;45395;-56
2021/07/19 07:04:29;;;;;;;;;9.50;9.25;;;;;23.81;49.88;101553.09;5103281;27;45153;-57
2021/07/19 07:06:55;;;;;;;;;13.25;12.00;;;;;23.83;50.23;101556.59;5102902;27;46301;-56
2021/07/19 07:09:21;;;;;;;;;13.25;12.75;;;;;23.84;49.86;101550.25;5102918;27;45316;-56
2021/07/19 07:11:46;;;;;;;;;14.00;10.25;;;;;23.85;49.95;101543.94;5102758;27;45177;-57
2021/07/19 07:14:11;;;;;;;;;12.75;11.50;;;;;23.84;49.60;101545.75;5102951;27;45355;-57
2021/07/19 07:16:37;;;;;;;;;9.50;9.50;;;;;23.88;49.83;101543.75;5102814;27;46097;-56
2021/07/19 07:19:03;;;;;;;;;16.00;12.50;;;;;23.90;49.92;101547.22;5101861;27;45212;-56
2021/07/19 07:21:31;;;;;;;;;15.75;14.75;;;;;23.93;50.04;101549.75;5102692;27;45483;-56
2021/07/19 07:23:57;;;;;;;;;13.50;11.50;;;;;23.95;50.14;101546.97;5102579;27;45552;-56
2021/07/19 07:26:23;;;;;;;;;10.25;10.00;;;;;23.98;49.97;101544.97;5102653;27;45326;-57
2021/07/19 07:28:49;;;;;;;;;12.50;11.25;;;;;24.00;50.05;101536.88;5102282;27;45624;-57
2021/07/19 07:31:15;;;;;;;;;13.25;10.50;;;;;24.04;50.13;101542.91;5102681;27;45303;-57
2021/07/19 07:33:40;;;;;;;;;12.50;12.00;;;;;24.06;49.99;101544.53;5102566;27;45249;-57
2021/07/19 07:36:06;;;;;;;;;10.50;8.75;;;;;24.09;50.06;101548.88;5098117;27;45260;-57
2021/07/19 07:38:32;;;;;;;;;13.50;10.75;;;;;24.12;50.18;101551.38;5100010;27;45433;-57
2021/07/19 07:40:58;;;;;;;;;15.00;11.25;;;;;24.14;50.17;101541.41;5102846;27;45582;-57
2021/07/19 07:43:24;;;;;;;;;16.75;14.00;;;;;24.17;49.98;101544.75;5083464;27;45365;-57
2021/07/19 07:45:49;;;;;;;;;10.50;9.25;;;;;24.19;49.89;101539.31;5080639;28;45408;-57
2021/07/19 07:48:15;;;;;;;;;10.00;10.00;;;;;24.25;49.95;101540.75;5099533;27;45327;-56
2021/07/19 07:50:41;;;;;;;;;13.75;11.00;;;;;24.28;49.96;101544.13;5102526;27;45310;-57
2021/07/19 07:53:06;;;;;;;;;10.00;9.50;;;;;24.32;49.94;101544.81;5102064;27;45351;-56
2021/07/19 07:55:31;;;;;;;;;14.50;10.75;;;;;24.36;50.06;101540.13;5102218;27;46081;-56
2021/07/19 07:57:57;;;;;;;;;11.50;11.50;;;;;24.40;49.71;101541.69;5101841;27;45294;-56
2021/07/19 08:00:22;;;;;;;;;10.00;10.00;;;;;24.44;49.71;101546.78;5102395;27;45333;-57
2021/07/19 08:02:48;;;;;;;;;10.75;10.75;;;;;24.48;49.82;101537.56;5102034;27;45488;-57
2021/07/19 08:05:13;;;;;;;;;11.00;10.25;;;;;24.51;49.75;101541.88;5080163;28;46273;-57
2021/07/19 08:07:39;;;;;;;;;9.50;9.50;;;;;24.56;49.37;101545.16;5077044;28;45314;-56
2021/07/19 08:10:07;;;;;;;;;12.25;10.00;;;;;24.59;49.80;101536.94;5070475;28;45268;-56
2021/07/19 08:12:33;;;;;;;;;10.25;9.25;;;;;24.64;49.70;101534.84;5098952;27;45280;-56
2021/07/19 08:14:59;;;;;;;;;10.50;10.25;;;;;24.70;49.76;101538.13;5101799;27;45338;-56
2021/07/19 08:17:25;;;;;;;;;13.25;11.00;;;;;24.74;49.64;101532.47;5101615;27;45327;-57
2021/07/19 08:19:52;;;;;;;;;12.75;10.00;;;;;24.78;49.39;101535.81;5101612;27;45261;-57
2021/07/19 08:22:19;;;;;;;;;13.00;11.25;;;;;24.85;49.36;101536.31;5101502;27;45523;-56
2021/07/19 08:24:47;;;;;;;;;8.75;8.75;;;;;24.88;49.70;101530.72;5101795;27;46999;-56
2021/07/19 08:27:12;;;;;;;;;9.75;9.75;;;;;24.93;49.06;101531.31;5101276;27;45355;-57
2021/07/19 08:29:37;;;;;;;;;10.25;9.50;;;;;25.00;49.35;101532.66;5092548;27;45201;-59
2021/07/19 08:32:03;;;;;;;;;8.75;7.25;;;;;25.06;49.23;101520.66;5101475;27;45613;-56
2021/07/19 08:34:29;;;;;;;;;10.50;8.00;;;;;25.11;49.21;101526.63;5101709;27;45372;-56
2021/07/19 08:36:55;;;;;;;;;10.00;8.25;;;;;25.13;49.16;101516.59;5093848;27;45338;-56
2021/07/19 08:39:21;;;;;;;;;7.50;6.00;;;;;25.21;48.97;101521.53;5101899;27;45358;-57
2021/07/19 08:41:46;;;;;;;;;9.25;9.00;;;;;25.25;48.50;101528.41;5100825;27;45362;-57
2021/07/19 08:44:12;;;;;;;;;8.25;6.50;;;;;25.29;48.48;101527.25;5101306;27;46121;-56
2021/07/19 08:46:42;;;;;;;;;9.25;8.75;;;;;25.33;48.24;101517.16;5101290;27;45316;-56
2021/07/19 08:49:09;;;;;;;;;11.75;11.25;;;;;25.39;48.47;101519.50;5101521;27;45482;-57
2021/07/19 08:51:39;;;;;;;;;12.00;9.00;;;;;25.45;48.56;101519.94;5101202;27;45319;-57
2021/07/19 08:54:07;;;;;;;;;11.75;9.75;;;;;25.49;48.38;101526.00;5101134;27;46481;-57
2021/07/19 08:56:33;;;;;;;;;11.75;9.25;;;;;25.53;48.09;101516.75;5101058;27;45235;-57
2021/07/19 08:58:58;;;;;;;;;10.75;10.50;;;;;25.62;47.85;101524.25;5079241;28;45351;-57
2021/07/19 09:01:24;;;;;;;;;9.50;8.25;;;;;25.68;47.74;101519.41;5100018;27;45306;-56
2021/07/19 09:03:49;;;;;;;;;10.00;10.00;;;;;25.73;47.86;101523.50;5101234;27;45488;-57
2021/07/19 09:06:15;;;;;;;;;11.75;10.25;;;;;25.79;47.82;101516.88;5079221;28;45389;-56
2021/07/19 09:08:48;;;;;;;;;11.25;8.50;;;;;25.84;47.09;101514.75;5092910;27;45248;-56
2021/07/19 09:11:13;;;;;;;;;8.25;8.25;;;;;25.89;47.41;101514.44;5101024;27;45309;-56
2021/07/19 09:14:01;;;;;;;;;11.00;8.25;;;;;25.96;47.39;101519.31;5100490;27;45374;-56
2021/07/19 09:16:41;;;;;;;;;5.25;5.00;;;;;26.02;46.70;101515.31;5079497;28;45316;-57
2021/07/19 09:19:12;;;;;;;;;8.00;8.00;;;;;26.09;46.73;101513.13;5098812;27;45331;-57
2021/07/19 09:21:38;;;;;;;;;9.25;7.25;;;;;26.18;46.91;101514.34;5100749;27;45468;-57
2021/07/19 09:24:06;;;;;;;;;7.50;6.75;;;;;26.23;46.89;101513.03;5100715;27;45293;-56
2021/07/19 09:26:33;;;;;;;;;6.00;5.50;;;;;26.30;46.41;101516.16;5101021;27;45268;-56
2021/07/19 09:28:59;;;;;;;;;8.00;8.00;;;;;26.38;46.81;101512.97;5100592;27;45394;-57
2021/07/19 09:31:39;;;;;;;;;8.00;6.00;;;;;26.46;46.23;101521.34;5078908;28;45488;-56
2021/07/19 09:34:13;;;;;;;;;6.75;5.25;;;;;26.53;46.09;101521.81;5088023;27;46019;-57
2021/07/19 09:37:03;;;;;;;;;9.75;6.00;;;;;26.60;46.47;101520.41;5093618;27;45231;-57
2021/07/19 09:39:31;;;;;;;;;7.50;7.50;;;;;26.71;45.74;101522.34;5078251;27;45508;-58
2021/07/19 09:42:10;;;;;;;;;8.25;8.25;;;;;26.79;45.70;101520.00;5104824;27;45318;-56
2021/07/19 09:44:36;;;;;;;;;10.25;6.75;;;;;26.85;45.60;101518.69;5107188;27;46048;-56
2021/07/19 09:47:04;;;;;;;;;9.25;8.50;;;;;26.94;45.58;101509.94;5107706;27;45413;-56
2021/07/19 09:49:32;;;;;;;;;10.25;7.50;;;;;27.02;45.56;101506.69;5107340;27;45363;-56
2021/07/19 09:52:03;;;;;;;;;9.25;8.50;;;;;27.08;45.43;101503.56;5107349;27;45305;-56
2021/07/19 09:54:35;;;;;;;;;9.00;9.00;;;;;27.16;46.11;101509.28;5107151;27;46456;-56
2021/07/19 09:57:00;;;;;;;;;10.25;9.00;;;;;27.27;45.09;101502.22;5106853;27;45654;-56
2021/07/19 09:59:26;;;;;;;;;10.00;9.25;;;;;27.33;45.28;101502.66;5107210;27;45295;-56
2021/07/19 10:01:52;;;;;;;;;9.00;7.75;;;;;27.44;45.73;101503.72;5085432;28;45694;-57
2021/07/19 10:04:18;;;;;;;;;12.75;9.00;;;;;27.53;45.79;101503.03;5102923;27;45880;-56
2021/07/19 10:06:45;;;;;;;;;11.75;7.25;;;;;27.61;45.24;101495.25;5107208;27;45317;-56
2021/07/19 10:09:13;;;;;;;;;7.00;7.00;;;;;27.70;45.83;101499.94;5107178;27;45418;-56
2021/07/19 10:11:43;;;;;;;;;31.50;27.50;;;;;27.81;44.76;101501.84;5106647;27;45332;-57
2021/07/19 10:14:08;;;;;;;;;17.25;14.00;;;;;27.92;45.61;101500.16;5106803;27;46364;-57
2021/07/19 10:16:35;;;;;;;;;12.00;10.25;;;;;28.01;45.04;101497.63;5107118;27;45399;-56
2021/07/19 10:19:03;;;;;;;;;9.25;7.75;;;;;28.09;44.89;101493.47;5107085;27;45269;-57
2021/07/19 10:21:31;;;;;;;;;9.25;9.25;;;;;28.20;44.73;101497.09;5106614;27;45475;-56
2021/07/19 10:24:07;;;;;;;;;13.25;12.25;;;;;28.28;45.14;101488.38;5106523;27;46146;-56
2021/07/19 10:26:34;;;;;;;;;11.00;10.25;;;;;28.38;44.78;101489.38;5106643;27;45255;-57
2021/07/19 10:29:01;;;;;;;;;8.00;8.00;;;;;28.47;44.93;101487.81;5106626;27;45335;-57
2021/07/19 10:31:27;;;;;;;;;9.75;7.75;;;;;28.60;44.64;101501.19;5088399;27;45318;-57
2021/07/19 10:33:58;;;;;;;;;10.25;8.00;;;;;28.72;44.71;101495.84;5088247;27;46445;-57
2021/07/19 10:36:49;;;;;;;;;10.25;7.25;;;;;28.82;44.39;101491.44;5099675;27;45375;-57
2021/07/19 10:39:20;;;;;;;;;10.00;9.50;;;;;28.96;44.08;101498.44;5096272;27;45250;-57
2021/07/19 10:42:16;;;;;;;;;8.50;8.50;;;;;29.08;44.12;101483.91;5106046;27;45407;-57
2021/07/19 10:44:43;;;;;;;;;7.75;7.75;;;;;29.25;44.18;101487.09;5106072;27;46254;-57
2021/07/19 10:47:18;;;;;;;;;9.00;9.00;;;;;29.41;43.97;101486.69;5106563;27;45235;-57
2021/07/19 10:50:05;;;;;;;;;7.50;7.50;;;;;29.62;43.88;101475.94;5106741;27;45295;-57
2021/07/19 10:52:38;;;;;;;;;8.00;8.00;;;;;29.88;44.09;101475.59;5104164;27;45166;-56
2021/07/19 10:55:09;;;;;;;;;9.50;8.00;;;;;30.19;44.04;101481.09;5103013;27;45256;-57
2021/07/19 10:57:42;;;;;;;;;8.25;7.75;;;;;30.56;44.16;101480.66;5102823;27;45292;-57
2021/07/19 11:00:13;;;;;;;;;8.50;8.00;;;;;31.01;44.16;101472.13;5103138;27;45292;-57
2021/07/19 11:02:38;;;;;;;;;11.25;9.75;;;;;31.48;44.63;101476.94;5102912;27;45450;-57
2021/07/19 11:05:05;;;;;;;;;9.25;9.25;;;;;31.99;43.77;101480.41;5102993;27;45316;-57
2021/07/19 11:07:44;;;;;;;;;8.00;7.00;;;;;32.57;43.72;101479.44;5102930;27;45223;-57
2021/07/19 11:10:15;;;;;;;;;7.25;4.75;;;;;33.10;43.47;101468.06;5102933;27;45323;-57
2021/07/19 11:12:51;;;;;;;;;8.75;6.00;;;;;33.74;43.22;101476.25;5102502;27;45405;-57
2021/07/19 11:15:19;;;;;;;;;7.75;7.50;;;;;34.31;43.17;101467.66;5102817;27;47129;-57
2021/07/19 11:17:45;;;;;;;;;6.50;6.50;;;;;34.85;42.63;101472.91;5102679;27;45377;-57
2021/07/19 11:20:13;;;;;;;;;8.75;8.00;;;;;35.39;42.36;101469.03;5102809;27;45393;-57